Time;durP1;ratioP1;P1;durP2;ratioP2;P2;SDS_P1;SDS_P2;PMS_P1;PMS_P2;Temp;Humidity;BMP_temperature;BMP_pressure;BME280_temperature;BME280_humidity;BME280_pressure;Samples;Min_cycle;Max_cycle;Signal;HPM_P1;HPM_P2
2023/02/19 00:01:13;;;;;;;7.95;5.22;;;;;;;7.69;100.00;99431.91;4922818;29;20028;-66
2023/02/19 00:03:39;;;;;;;7.68;4.95;;;;;;;7.70;100.00;99416.56;4931923;28;20082;-66
2023/02/19 00:06:08;;;;;;;7.43;4.85;;;;;;;7.68;100.00;99414.06;4915688;29;20036;-65
2023/02/19 00:08:34;;;;;;;7.73;4.93;;;;;;;7.72;100.00;99419.09;4920160;29;20079;-66
2023/02/19 00:11:06;;;;;;;7.45;5.20;;;;;;;7.71;100.00;99423.66;4919339;29;20036;-66
2023/02/19 00:13:35;;;;;;;8.32;5.00;;;;;;;7.74;100.00;99411.72;4933691;28;20024;-66
2023/02/19 00:16:05;;;;;;;9.18;4.82;;;;;;;7.69;100.00;99410.34;4925248;28;20028;-66
2023/02/19 00:18:31;;;;;;;7.30;4.80;;;;;;;7.68;100.00;99418.63;4922314;28;20479;-66
2023/02/19 00:20:56;;;;;;;7.57;4.88;;;;;;;7.72;100.00;99419.09;4936068;28;20060;-66
2023/02/19 00:23:21;;;;;;;8.98;5.32;;;;;;;7.68;100.00;99430.22;4932008;28;20199;-66
2023/02/19 00:25:47;;;;;;;8.50;4.95;;;;;;;7.71;100.00;99428.22;4939193;28;20439;-66
2023/02/19 00:28:13;;;;;;;8.13;5.28;;;;;;;7.72;100.00;99419.09;4933764;29;20122;-66
2023/02/19 00:30:38;;;;;;;7.38;4.90;;;;;;;7.73;100.00;99426.16;4933440;29;20024;-66
2023/02/19 00:33:05;;;;;;;7.40;4.55;;;;;;;7.70;100.00;99432.72;4928685;29;20032;-66
2023/02/19 00:35:35;;;;;;;8.15;4.70;;;;;;;7.71;100.00;99437.13;4926532;28;20028;-67
2023/02/19 00:38:02;;;;;;;7.30;4.63;;;;;;;7.69;100.00;99426.50;5008548;28;20042;-66
2023/02/19 00:40:27;;;;;;;6.88;4.43;;;;;;;7.66;100.00;99426.84;4930417;29;20032;-67
2023/02/19 00:42:53;;;;;;;7.20;4.68;;;;;;;7.65;100.00;99419.78;4932709;28;20044;-67
2023/02/19 00:45:18;;;;;;;10.30;4.82;;;;;;;7.66;100.00;99426.03;4929574;29;20070;-66
2023/02/19 00:47:43;;;;;;;6.50;4.10;;;;;;;7.65;100.00;99416.25;4925984;28;20148;-66
2023/02/19 00:50:09;;;;;;;7.85;4.43;;;;;;;7.67;100.00;99412.38;4929609;29;20021;-66
2023/02/19 00:52:34;;;;;;;5.97;4.00;;;;;;;7.65;100.00;99409.03;4925373;28;20036;-67
2023/02/19 00:55:00;;;;;;;5.35;3.83;;;;;;;7.68;100.00;99411.38;4930348;28;20043;-67
2023/02/19 00:57:26;;;;;;;6.75;4.25;;;;;;;7.67;100.00;99412.38;4915303;29;20028;-64
2023/02/19 00:59:51;;;;;;;9.98;4.07;;;;;;;7.64;100.00;99420.78;4918469;29;20034;-63
2023/02/19 01:02:17;;;;;;;6.55;4.30;;;;;;;7.65;100.00;99414.41;4924207;28;20127;-64
2023/02/19 01:04:42;;;;;;;7.05;4.18;;;;;;;7.64;100.00;99388.47;4925511;28;20077;-64
2023/02/19 01:07:08;;;;;;;5.68;4.05;;;;;;;7.67;100.00;99388.13;4921070;28;20023;-63
2023/02/19 01:09:33;;;;;;;6.28;3.95;;;;;;;7.66;100.00;99378.38;4922516;29;20024;-63
2023/02/19 01:11:58;;;;;;;6.15;4.18;;;;;;;7.63;100.00;99362.56;4918949;28;20612;-63
2023/02/19 01:14:24;;;;;;;8.02;4.50;;;;;;;7.66;100.00;99362.22;4922016;28;20028;-63
2023/02/19 01:16:56;;;;;;;7.90;4.55;;;;;;;7.70;100.00;99373.47;4915286;29;20032;-63
2023/02/19 01:19:22;;;;;;;9.02;4.63;;;;;;;7.65;100.00;99378.53;4940078;28;20016;-64
2023/02/19 01:21:47;;;;;;;7.18;4.70;;;;;;;7.67;100.00;99374.66;5009938;28;20042;-67
2023/02/19 01:24:12;;;;;;;7.55;4.90;;;;;;;7.69;100.00;99388.81;4930517;29;20058;-67
2023/02/19 01:26:39;;;;;;;7.72;4.90;;;;;;;7.64;100.00;99376.88;4926829;28;20056;-66
2023/02/19 01:29:04;;;;;;;6.53;4.47;;;;;;;7.59;100.00;99398.91;4932061;29;20114;-66
2023/02/19 01:31:30;;;;;;;8.73;5.43;;;;;;;7.61;100.00;99380.75;4929190;29;20118;-66
2023/02/19 01:33:58;;;;;;;8.43;4.97;;;;;;;7.62;100.00;99374.38;4925009;28;20028;-66
2023/02/19 01:36:25;;;;;;;7.78;5.32;;;;;;;7.63;100.00;99370.66;4927857;28;20024;-66
2023/02/19 01:38:51;;;;;;;8.48;5.25;;;;;;;7.59;100.00;99377.38;4931786;28;20502;-67
2023/02/19 01:41:19;;;;;;;9.10;4.60;;;;;;;7.61;100.00;99367.28;4914777;29;20074;-66
2023/02/19 01:44:06;;;;;;;9.38;5.35;;;;;;;7.63;100.00;99370.66;4915574;29;20486;-66
2023/02/19 01:46:36;;;;;;;8.07;4.85;;;;;;;7.63;100.00;99361.72;4917937;29;20032;-67
2023/02/19 01:49:13;;;;;;;9.65;5.30;;;;;;;7.64;100.00;99355.31;4923184;28;20387;-67
2023/02/19 01:51:47;;;;;;;8.02;4.82;;;;;;;7.63;100.00;99361.72;4933167;29;20547;-67
2023/02/19 01:54:16;;;;;;;9.38;5.13;;;;;;;7.64;100.00;99356.16;4921845;29;20023;-66
2023/02/19 01:56:43;;;;;;;8.43;4.90;;;;;;;7.65;100.00;99368.63;4925648;28;20069;-66
2023/02/19 01:59:09;;;;;;;5.97;4.22;;;;;;;7.64;100.00;99371.47;4922379;29;20063;-66
2023/02/19 02:01:38;;;;;;;7.68;4.45;;;;;;;7.61;100.00;99367.28;4920374;28;20063;-66
2023/02/19 02:04:05;;;;;;;6.45;3.95;;;;;;;7.59;100.00;99371.97;4920080;29;20044;-67
2023/02/19 02:06:37;;;;;;;7.05;4.30;;;;;;;7.56;100.00;99360.72;4918348;28;20028;-67
2023/02/19 02:11:50;;;;;;;6.38;4.00;;;;;;;7.61;100.00;99340.34;4934229;29;20486;-67
2023/02/19 02:14:27;;;;;;;7.60;4.07;;;;;;;7.64;100.00;99342.69;4928903;28;20039;-67
2023/02/19 02:17:21;;;;;;;5.80;3.55;;;;;;;7.63;100.00;99346.41;4927220;28;20058;-66
2023/02/19 02:20:02;;;;;;;5.95;3.90;;;;;;;7.64;100.00;99344.53;4923875;28;20037;-67
2023/02/19 02:22:36;;;;;;;5.30;3.28;;;;;;;7.67;100.00;99344.19;4925521;28;20035;-67
2023/02/19 02:25:01;;;;;;;4.95;3.42;;;;;;;7.66;100.00;99335.28;4920297;28;20067;-67
2023/02/19 02:27:42;;;;;;;4.57;3.13;;;;;;;7.64;100.00;99331.09;4923502;29;20479;-67
2023/02/19 02:30:35;;;;;;;4.50;3.25;;;;;;;7.62;100.00;99307.03;4933155;28;20032;-67
2023/02/19 02:33:25;;;;;;;5.60;3.60;;;;;;;7.63;100.00;99315.94;4924725;28;20429;-67
2023/02/19 02:36:18;;;;;;;4.45;3.00;;;;;;;7.60;100.00;99325.22;4926139;28;20071;-67
2023/02/19 02:38:46;;;;;;;5.85;3.05;;;;;;;7.62;100.00;99315.13;4937933;28;20040;-67
2023/02/19 02:41:13;;;;;;;5.13;3.15;;;;;;;7.58;100.00;99315.63;4921810;29;20052;-66
2023/02/19 02:43:39;;;;;;;5.47;3.58;;;;;;;7.60;100.00;99319.81;4919514;28;20122;-67
2023/02/19 02:46:05;;;;;;;4.60;2.97;;;;;;;7.63;100.00;99315.94;4917703;28;20116;-67
2023/02/19 02:49:05;;;;;;;5.38;3.33;;;;;;;7.62;100.00;99327.72;4930942;28;20110;-67
2023/02/19 02:51:40;;;;;;;5.28;3.35;;;;;;;7.60;100.00;99325.22;4930622;29;20031;-66
2023/02/19 02:56:55;;;;;;;;;;;;;;;7.58;100.00;99316.47;4929925;28;20387;-67
2023/02/19 02:59:24;;;;;;;4.60;2.58;;;;;;;7.60;100.00;99324.38;4928387;28;19918;-67
2023/02/19 03:02:09;;;;;;;;;;;;;;;7.59;100.00;99325.38;4923418;29;20051;-68
2023/02/19 03:07:55;;;;;;;3.15;1.73;;;;;;;7.64;100.00;99326.53;4921549;28;20506;-67
2023/02/19 03:10:47;;;;;;;3.88;2.42;;;;;;;7.62;100.00;99315.13;4924210;29;20023;-67
2023/02/19 03:21:49;;;;;;;4.60;2.25;;;;;;;7.62;100.00;99295.41;4921423;29;20047;-66
2023/02/19 03:27:06;;;;;;;3.03;2.00;;;;;;;7.58;100.00;99292.22;4925575;28;20434;-67
2023/02/19 03:29:34;;;;;;;2.45;1.90;;;;;;;7.62;100.00;99293.56;4919562;28;20122;-67
2023/02/19 03:32:05;;;;;;;2.92;2.03;;;;;;;7.59;100.00;99285.81;4915239;28;20377;-67
2023/02/19 03:34:36;;;;;;;2.60;1.90;;;;;;;7.59;100.00;99301.13;4920271;28;20487;-66
2023/02/19 03:37:45;;;;;;;3.97;1.98;;;;;;;7.61;100.00;99288.34;4931841;29;20062;-66
2023/02/19 03:40:12;;;;;;;2.58;1.75;;;;;;;7.58;100.00;99289.53;4881815;29;20024;-66
2023/02/19 03:43:06;;;;;;;2.63;1.80;;;;;;;7.57;100.00;99290.56;4957436;28;20105;-67
2023/02/19 03:45:37;;;;;;;2.50;1.65;;;;;;;7.64;100.00;99288.84;4940744;28;20058;-67
2023/02/19 03:48:21;;;;;;;3.58;1.83;;;;;;;7.63;100.00;99291.72;4925481;29;20036;-67
2023/02/19 03:50:48;;;;;;;2.92;1.75;;;;;;;7.60;100.00;99292.91;4928522;28;20086;-67
2023/02/19 03:53:46;;;;;;;4.28;2.05;;;;;;;7.60;100.00;99292.91;4917445;28;20028;-67
2023/02/19 03:56:24;;;;;;;2.75;1.90;;;;;;;7.59;100.00;99306.53;4924611;29;20055;-67
2023/02/19 03:58:52;;;;;;;3.40;1.80;;;;;;;7.59;100.00;99287.66;4930395;28;20091;-67
2023/02/19 04:01:27;;;;;;;4.07;1.75;;;;;;;7.61;100.00;99316.09;4921622;28;20075;-66
2023/02/19 04:04:14;;;;;;;2.83;1.73;;;;;;;7.59;100.00;99307.34;4913030;29;20502;-67
2023/02/19 04:06:42;;;;;;;3.35;1.90;;;;;;;7.61;100.00;99309.88;4916167;29;20111;-66
2023/02/19 04:09:10;;;;;;;2.20;1.60;;;;;;;7.58;100.00;99297.59;4923267;28;20028;-67
2023/02/19 04:11:37;;;;;;;2.20;1.70;;;;;;;7.58;100.00;99305.69;4932625;28;20032;-66
2023/02/19 04:14:10;;;;;;;3.53;1.58;;;;;;;7.62;100.00;99301.66;4925405;28;20039;-66
2023/02/19 04:16:41;;;;;;;2.63;1.67;;;;;;;7.64;100.00;99299.59;4923514;29;20104;-66
2023/02/19 04:19:10;;;;;;;1.73;1.40;;;;;;;7.65;100.00;99312.06;4900635;29;20096;-66
2023/02/19 04:21:36;;;;;;;;;;;;;;;7.63;100.00;99311.41;4929181;28;20035;-66
2023/02/19 04:24:07;;;;;;;1.88;1.23;;;;;;;7.64;100.00;99301.47;4926104;29;19911;-66
2023/02/19 04:26:34;;;;;;;3.47;1.70;;;;;;;7.65;100.00;99306.69;4923512;29;20032;-66
2023/02/19 04:29:00;;;;;;;1.65;1.30;;;;;;;7.64;100.00;99320.31;4930430;29;20090;-66
2023/02/19 04:31:28;;;;;;;2.67;1.50;;;;;;;7.68;100.00;99314.41;4938343;29;20031;-66
2023/02/19 04:33:54;;;;;;;2.47;1.35;;;;;;;7.66;100.00;99318.28;4959015;28;20059;-65
2023/02/19 04:36:19;;;;;;;1.38;1.15;;;;;;;7.59;100.00;99328.91;4922075;28;20066;-65
2023/02/19 04:38:44;;;;;;;4.97;1.52;;;;;;;7.58;100.00;99329.91;4933465;29;20039;-66
2023/02/19 04:41:10;;;;;;;1.88;1.33;;;;;;;7.54;100.00;99331.25;4920949;28;20067;-67
2023/02/19 04:43:35;;;;;;;2.63;1.60;;;;;;;7.58;100.00;99334.47;4921755;28;20044;-67
2023/02/19 04:46:01;;;;;;;1.88;1.40;;;;;;;7.60;100.00;99340.53;4934090;28;20032;-68
2023/02/19 04:48:27;;;;;;;1.80;1.20;;;;;;;7.64;100.00;99339.16;4952242;28;20384;-68
2023/02/19 04:50:52;;;;;;;1.90;1.20;;;;;;;7.61;100.00;99340.34;4931960;28;20031;-68
2023/02/19 04:55:46;;;;;;;1.65;1.20;;;;;;;7.30;100.00;99299.84;4966745;23;20074;-74
2023/02/19 04:58:12;;;;;;;1.80;1.30;;;;;;;7.51;100.00;99330.78;4943351;29;20028;-74
2023/02/19 05:00:37;;;;;;;1.63;1.20;;;;;;;7.65;100.00;99343.53;4959312;28;20027;-74
2023/02/19 05:03:04;;;;;;;2.65;0.90;;;;;;;7.51;100.00;99323.53;4953727;29;20066;-74
2023/02/19 05:05:29;;;;;;;1.67;1.20;;;;;;;7.63;100.00;99346.41;4976352;28;20049;-75
2023/02/19 05:07:55;;;;;;;1.40;1.30;;;;;;;7.47;100.00;99330.28;4968734;28;20535;-74
2023/02/19 05:10:20;;;;;;;3.92;1.08;;;;;;;7.53;100.00;99328.75;4968579;28;20107;-74
2023/02/19 05:12:45;;;;;;;1.92;1.02;;;;;;;7.44;100.00;99309.94;4971781;28;20026;-74
2023/02/19 05:15:10;;;;;;;1.20;0.80;;;;;;;7.50;100.00;99331.78;4965023;28;20027;-74
2023/02/19 05:17:36;;;;;;;1.50;0.80;;;;;;;7.48;100.00;99340.03;4955973;28;20110;-74
2023/02/19 05:20:02;;;;;;;1.95;1.10;;;;;;;7.49;100.00;99330.09;4963167;28;20034;-74
2023/02/19 05:22:28;;;;;;;1.48;1.02;;;;;;;7.41;100.00;99317.47;4972093;28;20019;-75
2023/02/19 05:24:54;;;;;;;2.25;0.82;;;;;;;7.44;100.00;99312.63;4970630;28;20030;-74
2023/02/19 05:27:19;;;;;;;1.25;0.90;;;;;;;7.49;100.00;99320.16;4971713;28;20107;-74
2023/02/19 05:29:44;;;;;;;1.67;0.98;;;;;;;7.55;100.00;99324.88;4969833;28;20072;-74
2023/02/19 05:32:10;;;;;;;1.92;1.10;;;;;;;7.52;100.00;99319.84;4962122;28;20079;-75
2023/02/19 05:34:35;;;;;;;1.45;0.90;;;;;;;7.48;100.00;99310.41;4966010;28;20034;-74
2023/02/19 05:37:00;;;;;;;1.42;0.82;;;;;;;7.58;100.00;99315.63;4960406;28;20042;-74
2023/02/19 05:39:25;;;;;;;1.08;0.80;;;;;;;7.65;100.00;99328.22;4967222;28;20037;-74
2023/02/19 05:41:51;;;;;;;1.10;0.70;;;;;;;7.72;100.00;99335.63;4972707;28;20053;-74
2023/02/19 05:44:16;;;;;;;0.93;0.70;;;;;;;7.60;100.00;99309.06;4972017;28;20038;-75
2023/02/19 05:46:41;;;;;;;0.60;0.57;;;;;;;7.69;100.00;99336.78;4963776;28;20113;-75
2023/02/19 05:49:06;;;;;;;1.15;0.65;;;;;;;7.75;100.00;99328.03;4968346;28;20455;-74
2023/02/19 05:51:32;;;;;;;1.45;0.70;;;;;;;7.79;100.00;99329.38;4960228;28;20106;-75
2023/02/19 05:53:57;;;;;;;0.80;0.55;;;;;;;7.66;100.00;99329.06;4962883;28;20445;-74
2023/02/19 05:56:25;;;;;;;0.68;0.60;;;;;;;7.65;100.00;99311.22;4970662;28;20035;-74
2023/02/19 05:58:51;;;;;;;0.82;0.50;;;;;;;7.69;100.00;99334.09;4966739;28;20038;-74
2023/02/19 06:01:17;;;;;;;1.20;0.70;;;;;;;7.60;100.00;99317.13;4971193;28;20035;-75
2023/02/19 06:03:43;;;;;;;0.70;0.60;;;;;;;7.68;100.00;99335.97;4963806;28;20039;-74
2023/02/19 06:06:15;;;;;;;0.80;0.68;;;;;;;7.72;100.00;99341.84;4964143;28;20026;-75
2023/02/19 06:08:41;;;;;;;1.27;1.08;;;;;;;7.65;100.00;99348.91;4965980;28;20034;-74
2023/02/19 06:11:07;;;;;;;1.20;0.75;;;;;;;7.67;100.00;99341.50;4951733;29;20031;-74
2023/02/19 06:13:32;;;;;;;0.57;0.50;;;;;;;7.66;100.00;99339.84;4952658;28;20092;-75
2023/02/19 06:15:57;;;;;;;1.02;0.88;;;;;;;7.64;100.00;99339.16;4969768;28;20042;-75
2023/02/19 06:18:23;;;;;;;0.98;0.80;;;;;;;7.54;100.00;99317.78;4968936;28;20403;-74
2023/02/19 06:20:48;;;;;;;0.95;0.73;;;;;;;7.71;100.00;99339.34;4967258;28;20042;-74
2023/02/19 06:23:14;;;;;;;1.08;0.80;;;;;;;7.81;100.00;99337.28;4970086;28;20098;-74
2023/02/19 06:25:39;;;;;;;1.00;0.70;;;;;;;7.58;100.00;99311.06;4971604;28;20031;-74
2023/02/19 06:28:05;;;;;;;1.52;0.80;;;;;;;7.70;100.00;99330.38;4969342;28;20030;-75
2023/02/19 06:30:30;;;;;;;1.55;0.93;;;;;;;7.84;100.00;99348.53;4957167;28;20030;-75
2023/02/19 06:32:55;;;;;;;1.13;0.88;;;;;;;7.83;100.00;99349.56;5008017;28;20035;-74
2023/02/19 06:35:21;;;;;;;1.30;0.80;;;;;;;7.80;100.00;99336.44;4964392;28;20041;-74
2023/02/19 06:37:48;;;;;;;1.08;0.90;;;;;;;7.74;100.00;99347.06;4959761;28;20110;-74
2023/02/19 06:40:14;;;;;;;1.60;0.90;;;;;;;7.75;100.00;99351.44;4950900;29;20051;-75
2023/02/19 06:42:39;;;;;;;2.85;1.00;;;;;;;7.87;100.00;99358.13;4968145;28;20052;-74
2023/02/19 06:45:04;;;;;;;2.70;1.23;;;;;;;7.79;100.00;99356.31;4968420;28;20026;-75
2023/02/19 06:47:33;;;;;;;3.17;0.82;;;;;;;7.83;100.00;99346.00;4963061;28;20098;-75
2023/02/19 06:49:59;;;;;;;1.17;0.93;;;;;;;7.87;100.00;99363.53;4974061;28;20023;-75
2023/02/19 06:52:25;;;;;;;3.40;1.17;;;;;;;7.86;100.00;99367.25;4970233;28;20035;-74
2023/02/19 06:54:51;;;;;;;1.30;0.95;;;;;;;7.89;100.00;99377.69;4968937;28;20038;-75
2023/02/19 06:57:17;;;;;;;1.90;1.17;;;;;;;7.81;100.00;99356.16;4959313;28;20023;-75
2023/02/19 06:59:42;;;;;;;1.48;1.13;;;;;;;7.90;100.00;99363.19;4983821;28;20030;-75
2023/02/19 07:02:10;;;;;;;3.05;1.08;;;;;;;7.97;100.00;99369.56;4962493;28;20020;-75
2023/02/19 07:04:35;;;;;;;2.35;1.33;;;;;;;7.94;100.00;99358.28;4961412;28;20114;-75
2023/02/19 07:07:01;;;;;;;1.83;1.27;;;;;;;7.92;100.00;99363.03;4952144;28;20070;-74
2023/02/19 07:09:27;;;;;;;1.95;1.10;;;;;;;7.84;100.00;99366.56;4966153;28;20019;-78
2023/02/19 07:11:53;;;;;;;1.63;1.20;;;;;;;7.97;100.00;99366.88;4985439;28;20027;-78
2023/02/19 07:14:19;;;;;;;1.13;0.95;;;;;;;7.91;100.00;99359.47;4974774;28;20053;-79
2023/02/19 07:16:46;;;;;;;3.22;1.50;;;;;;;8.08;100.00;99390.75;4968824;28;20042;-79
2023/02/19 07:19:11;;;;;;;3.42;1.38;;;;;;;7.85;100.00;99354.78;4966292;28;20016;-79
2023/02/19 07:21:37;;;;;;;1.45;1.00;;;;;;;7.97;100.00;99380.34;4968814;28;20034;-79
2023/02/19 07:24:04;;;;;;;2.10;1.08;;;;;;;8.03;100.00;99371.56;4965790;28;20080;-78
2023/02/19 07:26:29;;;;;;;2.17;1.23;;;;;;;7.98;100.00;99367.72;4983708;28;20034;-77
2023/02/19 07:28:54;;;;;;;1.67;1.17;;;;;;;8.14;100.00;99367.66;4976159;28;20023;-78
2023/02/19 07:31:22;;;;;;;1.98;1.23;;;;;;;7.85;100.00;99317.88;4961842;28;20033;-78
2023/02/19 07:33:48;;;;;;;1.75;1.00;;;;;;;8.40;100.00;99393.53;4977892;28;20027;-78
2023/02/19 07:36:16;;;;;;;2.58;0.90;;;;;;;8.31;100.00;99385.44;4976391;28;20030;-78
2023/02/19 07:38:44;;;;;;;1.67;1.15;;;;;;;7.82;100.00;99293.16;4974398;28;20030;-78
2023/02/19 07:41:09;;;;;;;1.73;0.93;;;;;;;8.14;100.00;99338.00;4974155;28;20101;-78
2023/02/19 07:43:37;;;;;;;1.55;0.98;;;;;;;8.28;100.00;99333.75;4969947;28;20024;-78
2023/02/19 07:46:22;;;;;;;1.65;1.10;;;;;;;8.46;100.00;99388.28;4978265;28;20045;-78
2023/02/19 07:48:47;;;;;;;1.48;1.00;;;;;;;8.39;100.00;99363.03;4974449;28;20045;-80
2023/02/19 07:51:17;;;;;;;1.25;0.88;;;;;;;7.76;100.00;99240.00;4978437;28;20569;-79
2023/02/19 07:53:46;;;;;;;1.27;1.00;;;;;;;8.28;100.00;99333.75;4976349;28;20471;-77
2023/02/19 07:56:12;;;;;;;1.33;1.05;;;;;;;7.92;100.00;99256.09;4975699;28;20035;-76
2023/02/19 07:58:39;;;;;;;3.53;1.20;;;;;;;7.80;100.00;99249.41;4976615;28;20034;-78
2023/02/19 08:01:16;;;;;;;2.15;1.30;;;;;;;8.40;100.00;99337.75;4973170;28;20034;-77
2023/02/19 08:03:43;;;;;;;1.83;1.20;;;;;;;8.53;100.00;99311.03;4967487;28;20106;-79
2023/02/19 08:06:10;;;;;;;3.83;1.30;;;;;;;9.42;100.00;99359.97;4977111;28;20035;-79
2023/02/19 08:09:11;;;;;;;1.20;0.88;;;;;;;9.57;100.00;99383.50;4969577;28;20023;-78
2023/02/19 08:14:45;;;;;;;2.10;1.23;;;;;;;8.86;100.00;99343.22;4978309;28;20050;-77
2023/02/19 08:17:18;;;;;;;1.45;1.17;;;;;;;8.90;100.00;99390.41;4975054;28;20489;-78
2023/02/19 08:19:44;;;;;;;1.73;1.20;;;;;;;8.81;100.00;99361.81;4975860;28;20042;-78
2023/02/19 08:22:46;;;;;;;2.45;1.10;;;;;;;9.25;100.00;99395.41;4971302;28;20165;-77
2023/02/19 08:25:11;;;;;;;1.92;1.23;;;;;;;9.22;100.00;99385.78;4963772;28;20094;-76
2023/02/19 08:27:37;;;;;;;2.47;1.30;;;;;;;9.38;100.00;99388.38;4985690;28;20053;-76
2023/02/19 08:30:03;;;;;;;1.77;1.20;;;;;;;9.68;100.00;99407.38;4970003;28;20027;-75
2023/02/19 08:32:28;;;;;;;3.60;1.23;;;;;;;9.38;100.00;99390.25;4962798;28;20122;-76
2023/02/19 08:34:53;;;;;;;1.85;1.20;;;;;;;9.50;100.00;99399.59;4970102;28;20094;-76
2023/02/19 08:37:19;;;;;;;1.30;1.08;;;;;;;9.51;100.00;99395.03;4978890;28;20050;-76
2023/02/19 08:39:58;;;;;;;3.08;1.80;;;;;;;9.50;100.00;99409.56;4974777;28;20037;-77
2023/02/19 08:42:23;;;;;;;3.17;1.00;;;;;;;9.62;100.00;99425.16;4970982;28;20031;-78
2023/02/19 08:44:48;;;;;;;1.38;1.20;;;;;;;9.33;100.00;99395.34;4965125;28;20495;-77
2023/02/19 08:47:14;;;;;;;1.55;1.00;;;;;;;9.46;100.00;99427.13;4973806;28;20031;-79
2023/02/19 08:50:10;;;;;;;1.23;0.88;;;;;;;9.44;100.00;99417.38;4999934;28;20007;-83
2023/02/19 08:52:36;;;;;;;1.70;1.20;;;;;;;9.27;100.00;99429.28;4971166;28;20100;-76
2023/02/19 08:55:05;;;;;;;2.55;1.08;;;;;;;9.07;100.00;99420.00;4972381;28;20435;-76
2023/02/19 08:57:30;;;;;;;1.52;1.30;;;;;;;9.17;100.00;99436.81;4970667;28;20080;-77
2023/02/19 08:59:56;;;;;;;1.30;1.20;;;;;;;9.10;100.00;99419.66;4957817;28;20039;-77
2023/02/19 09:02:22;;;;;;;3.85;1.00;;;;;;;9.07;100.00;99410.03;4972009;28;20407;-77
2023/02/19 09:04:47;;;;;;;3.10;1.30;;;;;;;9.45;100.00;99456.00;4968471;28;20079;-77
2023/02/19 09:07:12;;;;;;;3.13;1.30;;;;;;;9.14;100.00;99466.84;4971775;28;20395;-76
2023/02/19 09:09:38;;;;;;;2.67;1.00;;;;;;;9.28;100.00;99455.28;4970564;28;20023;-77
2023/02/19 09:12:08;;;;;;;1.50;1.10;;;;;;;9.47;100.00;99467.47;4966215;28;20039;-77
2023/02/19 09:14:34;;;;;;;1.27;1.05;;;;;;;9.70;100.00;99478.28;4969232;28;20118;-76
2023/02/19 09:17:01;;;;;;;3.15;0.98;;;;;;;9.79;100.00;99481.75;4963711;28;20442;-76
2023/02/19 09:19:27;;;;;;;5.03;1.30;;;;;;;9.66;100.00;99477.78;4964356;28;20081;-76
2023/02/19 09:21:53;;;;;;;1.95;1.17;;;;;;;9.51;100.00;99471.50;4968360;28;20022;-78
2023/02/19 09:24:18;;;;;;;1.83;1.10;;;;;;;9.62;100.00;99473.78;4975574;28;20039;-78
2023/02/19 09:26:43;;;;;;;2.40;1.30;;;;;;;9.78;100.00;99475.50;4979763;28;20030;-77
2023/02/19 09:29:09;;;;;;;2.63;1.15;;;;;;;9.79;100.00;99469.06;4970603;28;20054;-78
2023/02/19 09:31:34;;;;;;;2.17;1.20;;;;;;;9.81;100.00;99504.03;4966068;28;20045;-75
2023/02/19 09:34:00;;;;;;;2.55;1.13;;;;;;;9.85;100.00;99478.31;5028232;28;20107;-76
2023/02/19 09:36:25;;;;;;;3.13;1.52;;;;;;;9.86;100.00;99490.81;4996766;28;20031;-75
2023/02/19 09:38:51;;;;;;;1.33;0.85;;;;;;;10.00;100.00;99481.91;4968706;28;20031;-77
2023/02/19 09:41:30;;;;;;;3.72;1.75;;;;;;;10.09;100.00;99496.19;4994523;28;20512;-77
2023/02/19 09:44:02;;;;;;;2.70;1.20;;;;;;;9.99;100.00;99493.75;4970179;28;20088;-73
2023/02/19 09:46:31;;;;;;;2.58;1.10;;;;;;;10.16;100.00;99517.91;4960350;28;20067;-75
2023/02/19 09:49:24;;;;;;;2.50;0.90;;;;;;;10.23;100.00;99508.91;4971177;28;20054;-78
2023/02/19 09:51:59;;;;;;;2.45;1.08;;;;;;;10.01;100.00;99497.13;4956695;29;20108;-78
2023/02/19 09:54:29;;;;;;;3.28;1.27;;;;;;;9.91;100.00;99499.22;4959502;28;20097;-78
2023/02/19 09:56:56;;;;;;;2.25;1.33;;;;;;;10.12;100.00;99520.16;4965477;28;20045;-77
2023/02/19 09:59:27;;;;;;;1.90;1.20;;;;;;;10.16;100.00;99512.50;4976587;28;20041;-78
2023/02/19 10:02:01;;;;;;;2.58;1.20;;;;;;;10.26;100.00;99523.91;4982046;28;20030;-77
2023/02/19 10:04:26;;;;;;;1.75;1.00;;;;;;;10.26;100.00;99497.69;4971303;28;20109;-79
2023/02/19 10:06:57;;;;;;;1.25;0.95;;;;;;;10.53;100.00;99511.66;4972312;28;20426;-80
2023/02/19 10:09:30;;;;;;;1.25;0.80;;;;;;;10.42;100.00;99491.31;4985000;28;20015;-81
2023/02/19 10:11:58;;;;;;;1.92;1.13;;;;;;;10.73;100.00;99520.91;4971715;28;20029;-77
2023/02/19 10:14:38;;;;;;;1.90;0.90;;;;;;;10.86;100.00;99522.13;4966569;28;20035;-72
2023/02/19 10:17:05;;;;;;;1.58;1.00;;;;;;;10.56;100.00;99510.44;4963338;28;20031;-72
2023/02/19 10:19:33;;;;;;;1.40;1.00;;;;;;;10.36;100.00;99524.53;4957242;28;20416;-72
2023/02/19 10:22:01;;;;;;;2.58;1.15;;;;;;;10.55;100.00;99527.72;4952445;28;20039;-72
2023/02/19 10:24:28;;;;;;;1.45;0.82;;;;;;;10.61;100.00;99546.78;4962142;28;20031;-74
2023/02/19 10:26:53;;;;;;;3.70;1.27;;;;;;;10.67;100.00;99558.72;4962052;28;20030;-71
2023/02/19 10:29:20;;;;;;;3.08;1.20;;;;;;;10.51;100.00;99551.63;4957301;28;20027;-72
2023/02/19 10:31:46;;;;;;;1.10;0.90;;;;;;;10.35;100.00;99522.00;4966970;28;20746;-72
2023/02/19 10:34:22;;;;;;;2.78;1.02;;;;;;;10.64;100.00;99532.03;4967915;28;20121;-72
2023/02/19 10:36:49;;;;;;;2.67;1.05;;;;;;;11.00;100.00;99542.91;4969836;28;20053;-72
2023/02/19 10:39:21;;;;;;;1.25;0.95;;;;;;;11.09;100.00;99557.22;4965342;28;20027;-72
2023/02/19 10:41:49;;;;;;;4.40;1.20;;;;;;;11.03;100.00;99548.00;4962433;28;20074;-72
2023/02/19 10:44:20;;;;;;;2.75;1.35;;;;;;;11.06;100.00;99555.72;4969376;28;20101;-72
2023/02/19 10:46:51;;;;;;;1.77;0.98;;;;;;;11.00;100.00;99564.59;4978763;28;20032;-72
2023/02/19 10:49:37;;;;;;;3.25;0.98;;;;;;;11.01;100.00;99566.28;4966441;28;20019;-73
2023/02/19 10:52:41;;;;;;;3.83;1.20;;;;;;;11.04;100.00;99576.72;4954060;28;20385;-73
2023/02/19 10:55:27;;;;;;;6.05;1.27;;;;;;;11.22;100.00;99551.97;5002977;28;20116;-71
2023/02/19 10:57:52;;;;;;;4.82;1.20;;;;;;;11.30;100.00;99549.16;5018393;28;20037;-72
2023/02/19 11:00:26;;;;;;;2.38;1.00;;;;;;;11.05;100.00;99556.75;4976643;28;20042;-72
2023/02/19 11:03:13;;;;;;;3.15;1.30;;;;;;;11.29;100.00;99550.19;4968714;28;20031;-75
2023/02/19 11:05:51;;;;;;;4.72;1.05;;;;;;;11.57;100.00;99557.59;4964172;28;20024;-73
2023/02/19 11:08:22;;;;;;;1.67;1.20;;;;;;;11.81;100.00;99545.53;4958200;28;20058;-75
2023/02/19 11:10:48;;;;;;;3.33;1.52;;;;;;;12.16;100.00;99535.69;4964960;28;20034;-73
2023/02/19 11:13:19;;;;;;;3.42;1.17;;;;;;;11.46;100.00;99548.09;4950850;28;20038;-72
2023/02/19 11:15:51;;;;;;;2.50;1.20;;;;;;;11.58;100.00;99519.47;4961784;28;20027;-72
2023/02/19 11:18:22;;;;;;;3.40;1.20;;;;;;;11.56;100.00;99545.91;4966291;28;20038;-73
2023/02/19 11:20:56;;;;;;;4.40;1.38;;;;;;;11.61;100.00;99540.75;4965746;28;20050;-74
2023/02/19 11:23:29;;;;;;;3.53;1.17;;;;;;;12.02;100.00;99551.00;4965180;28;20031;-73
2023/02/19 11:26:00;;;;;;;2.83;1.17;;;;;;;12.03;100.00;99543.72;4956756;28;20058;-72
2023/02/19 11:28:38;;;;;;;1.98;0.93;;;;;;;12.44;100.00;99552.00;4950768;28;20102;-72
2023/02/19 11:31:18;;;;;;;2.15;1.10;;;;;;;12.23;100.00;99565.56;4951064;28;20039;-72
2023/02/19 11:34:07;;;;;;;3.17;1.00;;;;;;;12.27;100.00;99561.44;4967461;28;20030;-72
2023/02/19 11:36:34;;;;;;;1.90;0.90;;;;;;;12.42;100.00;99553.22;4943017;28;20134;-72
2023/02/19 11:39:18;;;;;;;2.95;1.15;;;;;;;11.97;100.00;99583.31;4963825;28;20633;-72
2023/02/19 11:42:13;;;;;;;2.95;1.33;;;;;;;11.29;100.00;99587.25;4969691;28;20088;-72
2023/02/19 11:45:22;;;;;;;4.22;0.98;;;;;;;11.29;100.00;99573.72;4962665;28;20057;-72
2023/02/19 11:47:56;;;;;;;4.80;1.43;;;;;;;10.70;100.00;99578.13;4964710;28;20262;-72
2023/02/19 11:50:49;;;;;;;1.90;0.90;;;;;;;10.72;100.00;99600.44;4950106;28;20058;-72
2023/02/19 11:53:26;;;;;;;5.57;1.45;;;;;;;10.87;100.00;99583.34;4958967;28;20075;-73
2023/02/19 11:56:10;;;;;;;1.77;1.05;;;;;;;11.02;100.00;99577.94;4956562;28;20030;-71
2023/02/19 11:58:39;;;;;;;2.40;1.33;;;;;;;11.08;100.00;99578.06;4956747;28;20018;-72
2023/02/19 12:01:29;;;;;;;4.28;1.20;;;;;;;10.95;100.00;99557.03;4968244;28;20042;-72
2023/02/19 12:03:54;;;;;;;1.95;1.10;;;;;;;11.43;100.00;99575.56;4954635;28;20031;-72
2023/02/19 12:06:38;;;;;;;3.53;1.45;;;;;;;11.72;100.00;99580.06;4968408;28;20031;-71
2023/02/19 12:09:25;;;;;;;2.92;1.23;;;;;;;11.69;100.00;99585.06;4954481;28;20039;-72
2023/02/19 12:12:00;;;;;;;3.00;1.20;;;;;;;12.11;100.00;99580.72;4964535;28;20031;-72